createdAt,value
2023-02-21T00:02:58.120Z,967.13
2023-02-21T00:07:59.580Z,967.11
2023-02-21T00:13:01.515Z,967.16
2023-02-21T00:18:03.176Z,967.11
2023-02-21T00:23:05.200Z,967.06
2023-02-21T00:28:07.136Z,967.14
2023-02-21T00:33:08.996Z,967.1
2023-02-21T00:38:10.266Z,967.05
2023-02-21T00:43:11.911Z,967.06
2023-02-21T00:48:13.587Z,966.99
2023-02-21T00:53:15.393Z,966.97
2023-02-21T00:58:16.999Z,967.01
2023-02-21T01:03:18.395Z,966.91
2023-02-21T01:08:19.476Z,966.94
2023-02-21T01:13:21.231Z,966.94
2023-02-21T01:18:23.339Z,966.87
2023-02-21T01:23:24.586Z,966.81
2023-02-21T01:28:26.033Z,966.8
2023-02-21T01:33:27.606Z,966.77
2023-02-21T01:38:29.362Z,966.74
2023-02-21T01:43:31.347Z,966.74
2023-02-21T01:48:32.847Z,966.74
2023-02-21T01:53:34.476Z,966.7
2023-02-21T01:58:36.702Z,966.6
2023-02-21T02:03:38.276Z,966.55
2023-02-21T02:08:39.932Z,966.56
2023-02-21T02:13:41.201Z,966.44
2023-02-21T02:18:43.371Z,966.42
2023-02-21T02:23:45.075Z,966.41
2023-02-21T02:28:46.445Z,966.36
2023-02-21T02:33:48.535Z,966.42
2023-02-21T02:38:50.025Z,966.34
2023-02-21T02:43:51.226Z,966.39
2023-02-21T02:48:52.693Z,966.32
2023-02-21T02:53:54.392Z,966.34
2023-02-21T02:58:55.870Z,966.32
2023-02-21T03:03:57.250Z,966.37
2023-02-21T03:08:58.747Z,966.38
2023-02-21T03:14:00.797Z,966.37
2023-02-21T03:19:02.570Z,966.35
2023-02-21T03:24:04.340Z,966.36
2023-02-21T03:29:05.726Z,966.33
2023-02-21T03:34:07.774Z,966.29
2023-02-21T03:39:09.503Z,966.3
2023-02-21T03:44:10.795Z,966.28
2023-02-21T03:49:12.190Z,966.33
2023-02-21T03:54:13.863Z,966.34
2023-02-21T03:59:15.715Z,966.26
2023-02-21T04:04:17.236Z,966.34
2023-02-21T04:09:19.241Z,966.23
2023-02-21T04:14:20.703Z,966.19
2023-02-21T04:19:21.833Z,966.15
2023-02-21T04:24:23.459Z,966.1
2023-02-21T04:29:25.113Z,966.07
2023-02-21T04:34:26.289Z,966.14
2023-02-21T04:39:28.451Z,966.07
2023-02-21T04:44:30.637Z,966.04
2023-02-21T04:49:31.888Z,966.1
2023-02-21T04:54:33.739Z,966.09
2023-02-21T04:59:34.980Z,966.08
2023-02-21T05:04:36.251Z,966.07
2023-02-21T05:09:38.168Z,966.03
2023-02-21T05:09:44.501Z,966
2023-02-21T05:14:46.555Z,965.94
2023-02-21T05:19:48.006Z,965.88
2023-02-21T05:24:49.683Z,965.84
2023-02-21T05:29:51.736Z,965.82
2023-02-21T05:34:53.523Z,965.77
2023-02-21T05:39:55.190Z,965.78
2023-02-21T06:15:05.884Z,966.13
2023-02-21T06:20:07.102Z,966.16
2023-02-21T06:40:14.354Z,966.32
2023-02-21T06:45:16.345Z,966.33
2023-02-21T06:50:18.256Z,966.42
2023-02-21T07:00:20.747Z,966.46
2023-02-21T07:10:24.051Z,966.5
2023-02-21T07:15:26.026Z,966.5
2023-02-21T07:20:27.553Z,966.48
2023-02-21T07:25:29.246Z,966.42
2023-02-21T07:30:31.083Z,966.38
2023-02-21T07:35:32.836Z,966.46
2023-02-21T07:40:34.147Z,966.45
2023-02-21T07:45:35.768Z,966.49
2023-02-21T07:50:37.692Z,966.57
2023-02-21T07:55:39.244Z,966.55
2023-02-21T08:00:41.334Z,966.6
2023-02-21T08:05:42.850Z,966.58
2023-02-21T08:10:44.896Z,966.59
2023-02-21T08:15:46.129Z,966.52
2023-02-21T08:20:47.960Z,966.55
2023-02-21T08:25:49.502Z,966.55
2023-02-21T08:30:51.200Z,966.56
2023-02-21T08:35:52.468Z,966.57
2023-02-21T08:40:54.660Z,966.62
2023-02-21T08:45:55.426Z,966.61
2023-02-21T08:50:56.833Z,966.58
2023-02-21T08:55:58.329Z,966.57
2023-02-21T09:01:00.288Z,966.59
2023-02-21T09:06:01.710Z,966.58
2023-02-21T09:11:03.890Z,966.59
2023-02-21T09:16:05.274Z,966.6
2023-02-21T09:21:07.219Z,966.61
2023-02-21T09:26:08.830Z,966.58
2023-02-21T09:31:10.549Z,966.53
2023-02-21T09:36:12.583Z,966.45
2023-02-21T09:41:14.155Z,966.42
2023-02-21T09:46:15.877Z,966.42
2023-02-21T09:51:17.506Z,966.45
2023-02-21T09:56:18.529Z,966.44
2023-02-21T10:01:20.229Z,966.46
2023-02-21T10:06:21.432Z,966.46
2023-02-21T10:11:23.539Z,966.52
2023-02-21T10:16:25.176Z,966.52
2023-02-21T10:21:27.248Z,966.5
2023-02-21T10:26:28.556Z,966.48
2023-02-21T10:31:30.151Z,966.51
2023-02-21T10:36:31.880Z,966.53
2023-02-21T10:41:33.724Z,966.49
2023-02-21T10:46:35.068Z,966.48
2023-02-21T10:51:36.982Z,966.44
2023-02-21T10:56:38.771Z,966.43
2023-02-21T11:01:40.400Z,966.33
2023-02-21T11:06:42.401Z,966.24
2023-02-21T11:11:43.472Z,966.18
2023-02-21T11:16:44.910Z,966.14
2023-02-21T11:21:46.366Z,966.11
2023-02-21T11:26:47.672Z,966.06
2023-02-21T11:31:49.901Z,965.92
2023-02-21T11:36:51.663Z,965.86
2023-02-21T11:41:52.987Z,965.83
2023-02-21T11:46:54.457Z,965.72
2023-02-21T11:51:55.668Z,965.64
2023-02-21T11:56:57.406Z,965.58
2023-02-21T12:01:58.731Z,965.55
2023-02-21T12:06:59.963Z,965.44
2023-02-21T12:12:02.449Z,965.41
2023-02-21T12:17:03.787Z,965.33
2023-02-21T12:22:05.190Z,965.25
2023-02-21T12:27:06.530Z,965.2
2023-02-21T12:32:08.870Z,965.17
2023-02-21T12:37:10.356Z,965.06
2023-02-21T12:42:12.182Z,965.02
2023-02-21T12:47:13.464Z,964.89
2023-02-21T12:52:14.881Z,964.79
2023-02-21T12:57:16.379Z,964.73
2023-02-21T13:02:18.117Z,964.69
2023-02-21T13:07:20.242Z,964.65
2023-02-21T13:12:21.558Z,964.52
2023-02-21T13:17:22.863Z,964.46
2023-02-21T13:22:24.351Z,964.35
2023-02-21T13:27:25.725Z,964.26
2023-02-21T13:32:27.318Z,964.18
2023-02-21T13:37:28.488Z,964.1
2023-02-21T13:42:30.049Z,964.02
2023-02-21T13:47:31.746Z,963.99
2023-02-21T13:52:32.964Z,963.92
2023-02-21T13:57:34.963Z,963.89
2023-02-21T14:02:36.669Z,963.79
2023-02-21T14:07:38.628Z,963.68
2023-02-21T14:12:40.604Z,963.65
2023-02-21T14:17:42.038Z,963.61
2023-02-21T14:22:43.231Z,963.63
2023-02-21T14:27:45.011Z,963.52
2023-02-21T14:32:46.782Z,963.5
2023-02-21T14:37:48.378Z,963.43
2023-02-21T14:42:50.497Z,963.33
2023-02-21T14:47:52.165Z,963.28
2023-02-21T14:52:53.772Z,963.27
2023-02-21T14:57:55.923Z,963.16
2023-02-21T15:02:57.235Z,963.11
2023-02-21T15:07:58.971Z,963.05
2023-02-21T15:13:00.636Z,963.03
2023-02-21T15:18:02.628Z,962.95
2023-02-21T15:23:04.490Z,962.95
2023-02-21T15:28:05.795Z,962.92
2023-02-21T15:33:07.458Z,962.91
2023-02-21T15:38:08.894Z,962.82
2023-02-21T15:43:10.200Z,962.82
2023-02-21T15:48:11.658Z,962.78
2023-02-21T15:53:13.180Z,962.72
2023-02-21T15:58:14.512Z,962.71
2023-02-21T16:03:16.162Z,962.69
2023-02-21T16:08:17.885Z,962.64
2023-02-21T16:13:19.921Z,962.55
2023-02-21T16:18:21.841Z,962.53
2023-02-21T16:23:23.557Z,962.58
2023-02-21T16:28:25.619Z,962.57
2023-02-21T16:33:27.471Z,962.6
2023-02-21T16:38:29.373Z,962.61
2023-02-21T16:43:31.070Z,962.63
2023-02-21T16:48:33.460Z,962.6
2023-02-21T16:53:35.114Z,962.59
2023-02-21T16:58:36.764Z,962.53
2023-02-21T17:03:38.447Z,962.61
2023-02-21T17:08:39.842Z,962.66
2023-02-21T17:13:41.823Z,962.69
2023-02-21T17:18:44.154Z,962.68
2023-02-21T17:23:45.489Z,962.67
2023-02-21T17:28:47.274Z,962.72
2023-02-21T17:33:48.500Z,962.69
2023-02-21T17:38:50.120Z,962.67
2023-02-21T17:43:52.109Z,962.71
2023-02-21T17:48:53.414Z,962.7
2023-02-21T17:53:54.982Z,962.66
2023-02-21T17:58:56.697Z,962.6
2023-02-21T18:03:58.745Z,962.6
2023-02-21T18:09:00.105Z,962.61
2023-02-21T18:14:01.481Z,962.61
2023-02-21T18:19:03.598Z,962.64
2023-02-21T18:24:04.893Z,962.63
2023-02-21T18:29:06.248Z,962.7
2023-02-21T18:34:08.588Z,962.66
2023-02-21T18:39:09.703Z,962.66
2023-02-21T18:44:11.019Z,962.62
2023-02-21T18:49:12.610Z,962.61
2023-02-21T18:54:14.018Z,962.62
2023-02-21T18:59:15.404Z,962.61
2023-02-21T19:04:17.258Z,962.59
2023-02-21T19:09:18.804Z,962.62
2023-02-21T19:14:20.893Z,962.63
2023-02-21T19:19:22.424Z,962.66
2023-02-21T19:24:24.217Z,962.61
2023-02-21T19:29:26.392Z,962.62
2023-02-21T19:34:28.165Z,962.59
2023-02-21T19:39:29.850Z,962.63
2023-02-21T19:44:31.565Z,962.66
2023-02-21T19:49:33.774Z,962.57
2023-02-21T19:54:35.674Z,962.63
2023-02-21T19:59:37.228Z,962.66
2023-02-21T20:04:38.662Z,962.67
2023-02-21T20:09:40.455Z,962.64
2023-02-21T20:14:41.846Z,962.61
2023-02-21T20:19:43.552Z,962.64
2023-02-21T20:24:45.505Z,962.58
2023-02-21T20:29:47.505Z,962.61
2023-02-21T20:34:49.682Z,962.6
2023-02-21T20:39:50.805Z,962.52
2023-02-21T20:44:52.271Z,962.52
2023-02-21T21:25:04.224Z,962.49
2023-02-21T21:45:11.081Z,962.53
2023-02-21T21:50:12.690Z,962.53
2023-02-21T22:05:24.281Z,962.48
2023-02-21T22:10:25.805Z,962.4
2023-02-21T22:15:27.076Z,962.35
2023-02-21T22:20:28.928Z,962.38
2023-02-21T22:25:30.303Z,962.4
2023-02-21T22:30:32.399Z,962.35
2023-02-21T22:35:34.179Z,962.41
2023-02-21T22:40:35.643Z,962.33
2023-02-21T22:45:37.116Z,962.34
2023-02-21T22:50:39.132Z,962.3
2023-02-21T22:55:40.875Z,962.22
2023-02-21T23:15:46.784Z,962.23
2023-02-21T23:20:48.474Z,962.24
2023-02-21T23:25:49.853Z,962.19
2023-02-21T23:30:51.946Z,962.16
2023-02-21T23:35:53.565Z,962.16
2023-02-21T23:40:55.244Z,962.1
2023-02-21T23:45:56.552Z,962.1
2023-02-21T23:50:58.350Z,962.08
2023-02-21T23:56:01.162Z,962.09
